Milan, New Hampshire
Current Conditions -  °F | °C
As of 3:52 PM on Friday 19 Dec 2014 (Local Time) from KBML Reporting Station
Overcast Overcast  
Wind Chill: 17°   Ceiling: 1900
Heat Index: 25°   Visibility: 10mi
Dew Point: 16°   Wind: 7mph
Humidity: 69%   Direction: 330°NNW
Pressure: 30"   Gusts: NA
Location:  44.57°N, 71.19°W
Report Text: KBML 192052Z AUTO 33006KT 10SM OVC019 M04/M09 A3000 RMK AO2 SLP177 T10391089 53020
Loading
Personal Weather Stations






























Interactive Weather Map New forecast layout! Learn more

10-Day Weather Forecast

Advertisements
Track Severe Weather on mobile